CheckWX is a tool to help pilots better visualize weather data.  It is not intended as a substitute for an official pre-flight weather briefing.

19:15:45 UTC

KPWK METAR
Chicago Executive Airport
Chicago/Prospect Heights/Wheeling, Illinois, USA
Current

24 mins ago

KPWK 311852Z 10006KT 10SM CLR 17/04 A3035 RMK AO2 SLP278 T01720039
Observed
May-31 @ 18:52 UTC
Wind
  • 100° at 6 KTS
Visibility
Flight Rules
VFR
Cloud Levels
  • Clear skies
Temperature
17°C / 63°F
Dewpoint
C / 39°F
Humidity
42%
Altimeter
30.35" Hg
Pressure
1027.82 hPa
Previous

1 hour ago

KPWK 311752Z 04008KT 10SM CLR 17/04 A3036 RMK AO2 SLP282 T01720039 10172 20117 58012
Observed
May-31 @ 17:52 UTC
Wind
  • 040° at 8 KTS
Visibility
Flight Rules
VFR
Cloud Levels
  • Clear skies
Temperature
17°C / 63°F
Dewpoint
C / 39°F
Humidity
42%
Altimeter
30.36" Hg
Pressure
1028.12 hPa
Previous

2 hours ago

KPWK 311652Z 10SM CLR 17/03 A3038 RMK AO2 SLP290 T01670028
Observed
May-31 @ 16:52 UTC
Visibility
Flight Rules
VFR
Cloud Levels
  • Clear skies
Temperature
17°C / 63°F
Dewpoint
C / 37°F
Humidity
39%
Altimeter
30.38" Hg
Pressure
1028.82 hPa